Time;durP1;ratioP1;P1;durP2;ratioP2;P2;SDS_P1;SDS_P2;PMS_P1;PMS_P2;Temp;Humidity;BMP_temperature;BMP_pressure;BME280_temperature;BME280_humidity;BME280_pressure;Samples;Min_cycle;Max_cycle;Signal;HPM_P1;HPM_P2
2023/02/08 00:01:51;;;;;;;2.22;2.13;;;;;;;;;;5054522;28;20049;-91
2023/02/08 00:04:17;;;;;;;2.85;2.75;;;;;;;;;;5054547;28;20075;-92
2023/02/08 00:06:44;;;;;;;2.47;2.38;;;;;;;;;;5054130;28;20059;-91
2023/02/08 00:09:10;;;;;;;3.17;3.08;;;;;;;;;;5054502;28;20110;-92
2023/02/08 00:11:37;;;;;;;4.18;3.90;;;;;;;;;;5054210;28;20102;-92
2023/02/08 00:14:04;;;;;;;2.38;2.28;;;;;;;;;;5054080;28;20485;-92
2023/02/08 00:16:30;;;;;;;0.88;0.88;;;;;;;;;;5052855;28;20439;-92
2023/02/08 00:18:58;;;;;;;0.70;0.70;;;;;;;;;;5054489;28;20448;-92
2023/02/08 00:21:25;;;;;;;1.77;1.73;;;;;;;;;;5054275;28;20045;-92
2023/02/08 00:23:51;;;;;;;3.08;2.97;;;;;;;;;;5054533;28;20074;-93
2023/02/08 00:26:18;;;;;;;6.75;6.32;;;;;;;;;;5053856;28;20056;-92
2023/02/08 00:28:44;;;;;;;3.63;3.25;;;;;;;;;;5054507;28;20048;-93
2023/02/08 00:31:11;;;;;;;6.57;6.03;;;;;;;;;;5054177;28;20475;-92
2023/02/08 00:33:37;;;;;;;8.70;4.82;;;;;;;;;;5053217;28;20045;-92
2023/02/08 00:36:07;;;;;;;2.20;2.10;;;;;;;;;;5054121;28;20049;-92
2023/02/08 00:38:34;;;;;;;4.25;3.60;;;;;;;;;;5054296;28;20084;-92
2023/02/08 00:41:00;;;;;;;3.90;3.58;;;;;;;;;;5054929;28;20080;-93
2023/02/08 00:43:27;;;;;;;2.75;2.65;;;;;;;;;;5058476;28;20045;-93
2023/02/08 00:45:54;;;;;;;7.57;7.28;;;;;;;;;;5058319;28;20048;-92
2023/02/08 00:48:20;;;;;;;1.92;1.83;;;;;;;;;;5058281;28;20084;-90
2023/02/08 00:50:56;;;;;;;2.33;2.22;;;;;;;;;;5058056;28;20075;-91
2023/02/08 00:53:24;;;;;;;2.50;2.40;;;;;;;;;;5056069;28;20075;-91
2023/02/08 00:55:51;;;;;;;2.38;2.28;;;;;;;;;;5057982;28;20053;-90
2023/02/08 00:58:17;;;;;;;1.73;1.63;;;;;;;;;;5057500;28;20052;-91
2023/02/08 01:00:44;;;;;;;2.50;2.30;;;;;;;;;;5057905;28;20057;-91
2023/02/08 01:03:11;;;;;;;6.22;4.30;;;;;;;;;;5057269;28;20042;-91
2023/02/08 01:05:37;;;;;;;4.00;3.63;;;;;;;;;;5062662;28;20052;-90
2023/02/08 01:08:04;;;;;;;2.35;2.25;;;;;;;;;;5056183;28;20170;-91
2023/02/08 01:10:32;;;;;;;3.13;3.03;;;;;;;;;;5057594;28;20052;-90
2023/02/08 01:13:00;;;;;;;2.15;2.08;;;;;;;;;;5057156;28;20072;-91
2023/02/08 01:15:27;;;;;;;4.22;4.03;;;;;;;;;;5057057;28;20510;-90
2023/02/08 01:17:53;;;;;;;3.25;3.15;;;;;;;;;;5056553;28;20052;-90
2023/02/08 01:20:20;;;;;;;2.08;1.98;;;;;;;;;;5057269;28;20056;-91
2023/02/08 01:22:47;;;;;;;3.03;2.92;;;;;;;;;;5056714;28;20041;-91
2023/02/08 01:25:13;;;;;;;1.00;1.00;;;;;;;;;;5057071;28;20056;-91
2023/02/08 01:27:41;;;;;;;1.63;1.58;;;;;;;;;;5056025;28;20041;-91
2023/02/08 01:30:09;;;;;;;1.75;1.65;;;;;;;;;;5057332;28;20413;-92
2023/02/08 01:32:35;;;;;;;2.65;2.55;;;;;;;;;;5056871;28;20492;-92
2023/02/08 01:35:02;;;;;;;2.70;2.60;;;;;;;;;;5057372;28;20102;-92
2023/02/08 01:37:28;;;;;;;2.28;2.17;;;;;;;;;;5057159;28;20049;-92
2023/02/08 01:39:55;;;;;;;1.25;1.25;;;;;;;;;;5056949;28;20780;-92
2023/02/08 01:42:21;;;;;;;1.77;1.67;;;;;;;;;;5056694;28;20052;-91
2023/02/08 01:45:06;;;;;;;2.15;2.05;;;;;;;;;;5056228;28;20053;-91
2023/02/08 01:47:34;;;;;;;2.08;1.98;;;;;;;;;;5057209;28;20045;-92
2023/02/08 01:50:01;;;;;;;2.00;1.90;;;;;;;;;;5056611;28;20136;-92
2023/02/08 01:52:28;;;;;;;7.65;7.43;;;;;;;;;;5056361;28;20098;-92
2023/02/08 01:54:57;;;;;;;2.17;2.10;;;;;;;;;;5056387;28;20049;-91
2023/02/08 01:57:25;;;;;;;3.88;3.30;;;;;;;;;;5056769;28;20056;-92
2023/02/08 01:59:53;;;;;;;1.27;1.27;;;;;;;;;;5056626;28;20049;-92
2023/02/08 02:02:21;;;;;;;2.40;2.30;;;;;;;;;;5055234;28;20075;-92
2023/02/08 02:04:50;;;;;;;2.83;2.70;;;;;;;;;;5056237;28;20049;-92
2023/02/08 02:07:17;;;;;;;0.85;0.85;;;;;;;;;;5057143;28;20398;-92
2023/02/08 02:09:45;;;;;;;1.70;1.63;;;;;;;;;;5056575;28;20053;-92
2023/02/08 02:12:12;;;;;;;3.03;2.83;;;;;;;;;;5056432;28;20497;-92
2023/02/08 02:14:39;;;;;;;2.65;2.55;;;;;;;;;;5056277;28;20044;-92
2023/02/08 02:17:06;;;;;;;2.53;2.42;;;;;;;;;;5056212;28;20049;-93
2023/02/08 02:19:35;;;;;;;4.85;4.55;;;;;;;;;;5055017;28;20049;-92
2023/02/08 02:22:07;;;;;;;2.10;2.00;;;;;;;;;;5056138;28;20059;-92
2023/02/08 02:24:42;;;;;;;3.10;2.70;;;;;;;;;;5055896;28;20098;-92
2023/02/08 02:27:32;;;;;;;8.73;6.78;;;;;;;;;;5056162;28;20520;-92
2023/02/08 02:30:17;;;;;;;5.70;2.35;;;;;;;;;;5056327;28;20570;-91
2023/02/08 02:32:56;;;;;;;5.93;4.97;;;;;;;;;;5056512;28;20414;-92
2023/02/08 02:35:27;;;;;;;2.78;2.58;;;;;;;;;;5056184;28;20049;-92
2023/02/08 02:37:56;;;;;;;1.23;1.23;;;;;;;;;;5050032;28;20431;-93
2023/02/08 02:40:26;;;;;;;1.33;1.33;;;;;;;;;;5055914;28;20408;-92
2023/02/08 02:45:47;;;;;;;2.85;2.75;;;;;;;;;;5055969;28;20059;-91
2023/02/08 02:48:20;;;;;;;2.75;2.65;;;;;;;;;;5055813;28;20048;-92
2023/02/08 02:50:49;;;;;;;1.15;1.15;;;;;;;;;;5055633;28;20059;-92
2023/02/08 02:53:18;;;;;;;2.35;2.25;;;;;;;;;;5055615;28;20111;-91
2023/02/08 02:55:46;;;;;;;2.40;2.30;;;;;;;;;;5054692;28;20045;-92
2023/02/08 02:58:15;;;;;;;2.10;2.00;;;;;;;;;;5055679;28;20053;-92
2023/02/08 03:00:41;;;;;;;1.20;1.20;;;;;;;;;;5057057;28;20107;-92
2023/02/08 03:03:17;;;;;;;2.47;2.15;;;;;;;;;;5056001;28;20048;-93
2023/02/08 03:05:45;;;;;;;5.43;4.93;;;;;;;;;;5035520;28;20077;-93
2023/02/08 03:08:16;;;;;;;5.30;4.82;;;;;;;;;;5036281;28;20057;-93
2023/02/08 03:10:49;;;;;;;2.30;2.20;;;;;;;;;;5035147;28;20057;-93
2023/02/08 03:13:23;;;;;;;1.45;1.42;;;;;;;;;;5035320;28;20394;-92
2023/02/08 03:15:57;;;;;;;2.05;1.95;;;;;;;;;;5052562;28;20052;-92
2023/02/08 03:18:29;;;;;;;4.03;3.65;;;;;;;;;;5055173;28;20048;-92
2023/02/08 03:21:01;;;;;;;2.28;2.17;;;;;;;;;;5054487;28;20091;-93
2023/02/08 03:23:27;;;;;;;;;;;;;;;;;;5055651;28;20052;-92
2023/02/08 03:25:58;;;;;;;2.15;2.05;;;;;;;;;;5054996;28;19966;-93
2023/02/08 03:28:27;;;;;;;2.13;2.03;;;;;;;;;;5055029;28;20052;-92
2023/02/08 03:30:57;;;;;;;2.45;2.35;;;;;;;;;;5052933;28;20507;-91
2023/02/08 03:33:25;;;;;;;0.45;0.45;;;;;;;;;;5054751;28;20443;-91
2023/02/08 03:35:56;;;;;;;2.00;1.90;;;;;;;;;;5054828;28;20048;-91
2023/02/08 03:38:26;;;;;;;5.30;4.97;;;;;;;;;;5054572;28;20072;-91
2023/02/08 03:40:54;;;;;;;2.00;1.95;;;;;;;;;;5054614;28;20048;-92
2023/02/08 03:43:23;;;;;;;4.05;3.85;;;;;;;;;;5054589;28;20053;-92
2023/02/08 03:45:51;;;;;;;4.15;3.95;;;;;;;;;;5054930;28;20052;-91
2023/02/08 03:48:18;;;;;;;3.00;2.80;;;;;;;;;;5053878;28;20041;-92
2023/02/08 03:50:48;;;;;;;2.80;2.70;;;;;;;;;;5054345;28;20190;-91
2023/02/08 03:53:16;;;;;;;2.80;2.70;;;;;;;;;;5054340;28;20053;-91
2023/02/08 03:55:46;;;;;;;2.20;2.10;;;;;;;;;;5055301;28;20052;-91
2023/02/08 03:58:16;;;;;;;2.92;2.72;;;;;;;;;;5054462;28;20053;-91
2023/02/08 04:00:44;;;;;;;3.22;3.00;;;;;;;;;;5055217;28;20095;-92
2023/02/08 04:03:13;;;;;;;3.28;3.17;;;;;;;;;;5054040;28;20052;-92
2023/02/08 04:05:40;;;;;;;2.17;2.08;;;;;;;;;;5054633;28;20084;-91
2023/02/08 04:08:06;;;;;;;2.20;2.10;;;;;;;;;;5054045;28;20550;-93
2023/02/08 04:10:33;;;;;;;3.13;3.03;;;;;;;;;;5055255;28;20497;-91
2023/02/08 04:13:01;;;;;;;5.35;5.15;;;;;;;;;;5054364;28;20048;-91
2023/02/08 04:15:27;;;;;;;1.65;1.55;;;;;;;;;;5054047;28;20048;-91
2023/02/08 04:17:54;;;;;;;3.63;3.45;;;;;;;;;;5054649;28;20098;-92
2023/02/08 04:20:21;;;;;;;3.00;2.90;;;;;;;;;;5054263;28;20056;-92
2023/02/08 04:22:47;;;;;;;4.13;3.78;;;;;;;;;;5054035;28;20045;-91
2023/02/08 04:25:14;;;;;;;2.25;2.15;;;;;;;;;;5053471;28;20049;-92
2023/02/08 04:27:41;;;;;;;3.08;2.97;;;;;;;;;;5054397;28;20531;-92
2023/02/08 04:30:09;;;;;;;2.63;2.53;;;;;;;;;;5054513;28;20140;-92
2023/02/08 04:32:36;;;;;;;2.58;2.47;;;;;;;;;;5054598;28;20467;-92
2023/02/08 04:35:02;;;;;;;3.13;2.95;;;;;;;;;;5054387;28;20048;-92
2023/02/08 04:37:29;;;;;;;3.20;3.10;;;;;;;;;;5053965;28;20546;-92
2023/02/08 04:39:55;;;;;;;3.25;3.15;;;;;;;;;;5053282;28;20111;-93
2023/02/08 04:42:22;;;;;;;4.35;4.15;;;;;;;;;;5054560;28;20045;-92
2023/02/08 04:44:48;;;;;;;3.42;3.30;;;;;;;;;;5047605;28;20486;-92
2023/02/08 04:47:16;;;;;;;3.85;3.75;;;;;;;;;;5035693;28;20053;-92
2023/02/08 04:49:43;;;;;;;2.83;2.70;;;;;;;;;;5040306;28;20045;-92
2023/02/08 04:52:09;;;;;;;2.67;2.58;;;;;;;;;;5053938;28;20053;-93
2023/02/08 04:54:36;;;;;;;2.25;2.15;;;;;;;;;;5053825;28;20063;-93
2023/02/08 04:57:03;;;;;;;2.65;2.55;;;;;;;;;;5053253;28;20049;-93
2023/02/08 04:59:29;;;;;;;2.50;2.40;;;;;;;;;;5053941;28;20405;-95
2023/02/08 05:01:56;;;;;;;4.95;2.28;;;;;;;;;;5054842;28;20049;-94
2023/02/08 05:04:24;;;;;;;1.83;1.73;;;;;;;;;;5065376;28;20055;-94
2023/02/08 05:06:51;;;;;;;1.50;1.48;;;;;;;;;;5054250;28;20053;-94
2023/02/08 05:09:17;;;;;;;5.35;3.25;;;;;;;;;;5047372;28;20107;-93
2023/02/08 05:11:44;;;;;;;2.00;1.90;;;;;;;;;;5044057;28;20045;-93
2023/02/08 05:14:10;;;;;;;3.72;3.53;;;;;;;;;;5043709;28;20091;-94
2023/02/08 05:16:37;;;;;;;2.05;1.95;;;;;;;;;;5053594;28;20052;-93
2023/02/08 05:19:03;;;;;;;1.42;1.42;;;;;;;;;;5053473;28;20041;-94
2023/02/08 05:21:31;;;;;;;1.95;1.85;;;;;;;;;;5054312;28;20045;-93
2023/02/08 05:23:58;;;;;;;1.38;1.38;;;;;;;;;;5054391;28;20045;-94
2023/02/08 05:26:24;;;;;;;1.42;1.42;;;;;;;;;;5054502;28;20049;-94
2023/02/08 05:28:51;;;;;;;2.38;2.28;;;;;;;;;;5057158;28;20049;-94
2023/02/08 05:31:20;;;;;;;3.05;2.85;;;;;;;;;;5057132;28;20053;-94
2023/02/08 05:33:46;;;;;;;2.95;2.75;;;;;;;;;;5057843;28;20049;-93
2023/02/08 05:36:13;;;;;;;2.72;2.63;;;;;;;;;;5058631;28;20394;-93
2023/02/08 05:38:41;;;;;;;1.92;1.83;;;;;;;;;;5058168;28;20052;-93
2023/02/08 05:41:07;;;;;;;1.80;1.70;;;;;;;;;;5057728;28;20489;-93
2023/02/08 05:43:34;;;;;;;2.10;2.00;;;;;;;;;;5057073;28;20053;-93
2023/02/08 05:46:01;;;;;;;1.58;1.52;;;;;;;;;;5057136;28;20060;-93
2023/02/08 05:48:27;;;;;;;3.90;3.60;;;;;;;;;;5054418;28;20049;-92
2023/02/08 05:50:54;;;;;;;0.65;0.65;;;;;;;;;;5054187;28;20377;-92
2023/02/08 05:53:20;;;;;;;2.70;2.60;;;;;;;;;;5051717;28;20045;-92
2023/02/08 05:55:48;;;;;;;3.65;3.45;;;;;;;;;;5056526;28;20102;-93
2023/02/08 05:58:15;;;;;;;2.17;2.08;;;;;;;;;;5056258;28;20049;-92
2023/02/08 06:00:42;;;;;;;1.77;1.67;;;;;;;;;;5056823;28;20057;-93
2023/02/08 06:03:08;;;;;;;2.00;1.90;;;;;;;;;;5057243;28;20049;-93
2023/02/08 06:05:37;;;;;;;2.70;2.60;;;;;;;;;;5055486;28;20064;-92
2023/02/08 06:08:03;;;;;;;3.10;3.00;;;;;;;;;;5056030;28;20056;-93
2023/02/08 06:10:30;;;;;;;5.15;4.68;;;;;;;;;;5056401;28;20048;-92
2023/02/08 06:12:58;;;;;;;3.15;3.05;;;;;;;;;;5055984;28;20060;-93
2023/02/08 06:15:24;;;;;;;4.03;3.90;;;;;;;;;;5056858;28;20099;-93
2023/02/08 06:17:51;;;;;;;4.70;4.28;;;;;;;;;;5056897;28;20079;-94
2023/02/08 06:20:18;;;;;;;2.92;2.83;;;;;;;;;;5056206;28;20099;-93
2023/02/08 06:22:44;;;;;;;2.30;2.20;;;;;;;;;;5053582;28;20056;-94
2023/02/08 06:25:14;;;;;;;3.97;3.78;;;;;;;;;;5049145;28;20057;-94
2023/02/08 06:27:40;;;;;;;3.10;3.00;;;;;;;;;;5048234;28;20048;-94
2023/02/08 06:30:09;;;;;;;2.85;2.75;;;;;;;;;;5056583;28;20052;-94
2023/02/08 06:32:36;;;;;;;1.75;1.65;;;;;;;;;;5055159;28;20094;-95
2023/02/08 06:35:02;;;;;;;1.95;1.85;;;;;;;;;;5055869;28;20060;-93
2023/02/08 06:37:29;;;;;;;3.45;3.25;;;;;;;;;;5053883;28;20045;-94
2023/02/08 06:39:55;;;;;;;3.97;3.88;;;;;;;;;;5055760;28;20556;-94
2023/02/08 06:42:22;;;;;;;1.80;1.70;;;;;;;;;;5055962;28;20057;-94
2023/02/08 06:44:49;;;;;;;8.25;4.15;;;;;;;;;;5055933;28;20041;-94
2023/02/08 06:47:17;;;;;;;6.50;6.10;;;;;;;;;;5056002;28;20493;-93
2023/02/08 06:49:43;;;;;;;3.10;1.88;;;;;;;;;;5055669;28;20463;-93
2023/02/08 06:52:10;;;;;;;7.97;5.35;;;;;;;;;;5052133;28;20049;-93
2023/02/08 06:54:36;;;;;;;3.75;3.58;;;;;;;;;;5055477;28;20049;-93
2023/02/08 06:57:03;;;;;;;2.55;2.45;;;;;;;;;;5056121;28;20048;-94
2023/02/08 06:59:30;;;;;;;3.50;3.30;;;;;;;;;;5055904;28;20107;-94
2023/02/08 07:01:56;;;;;;;3.47;3.30;;;;;;;;;;5055832;28;20084;-94
2023/02/08 07:04:24;;;;;;;3.80;3.60;;;;;;;;;;5055736;28;20045;-94
2023/02/08 07:06:51;;;;;;;3.00;2.83;;;;;;;;;;5056021;28;20052;-94
2023/02/08 07:09:17;;;;;;;5.32;5.03;;;;;;;;;;5056040;28;20079;-93
2023/02/08 07:11:44;;;;;;;20.92;7.18;;;;;;;;;;5056005;28;20052;-94
2023/02/08 07:14:12;;;;;;;8.40;7.40;;;;;;;;;;5055697;28;20558;-94
2023/02/08 07:16:38;;;;;;;3.00;2.90;;;;;;;;;;5055565;28;20045;-93
2023/02/08 07:19:05;;;;;;;2.63;2.53;;;;;;;;;;5055208;28;20527;-93
2023/02/08 07:21:33;;;;;;;4.90;4.57;;;;;;;;;;5058627;28;20048;-93
2023/02/08 07:23:59;;;;;;;4.72;4.40;;;;;;;;;;5062769;28;20041;-93
2023/02/08 07:26:26;;;;;;;5.53;5.22;;;;;;;;;;5055501;28;20057;-93
2023/02/08 07:28:53;;;;;;;3.17;3.08;;;;;;;;;;5056107;28;20564;-92
2023/02/08 07:31:20;;;;;;;2.78;2.67;;;;;;;;;;5057215;28;20099;-92
2023/02/08 07:33:46;;;;;;;8.95;8.35;;;;;;;;;;5065884;28;20048;-91
2023/02/08 07:36:13;;;;;;;6.35;5.95;;;;;;;;;;5058190;28;20064;-92
2023/02/08 07:38:41;;;;;;;4.53;4.22;;;;;;;;;;5047361;28;20060;-91
2023/02/08 07:41:08;;;;;;;10.32;9.68;;;;;;;;;;5055687;28;20155;-91
2023/02/08 07:43:35;;;;;;;5.68;5.47;;;;;;;;;;5066517;28;20049;-91
2023/02/08 07:46:05;;;;;;;6.25;5.95;;;;;;;;;;5066813;28;20045;-91
2023/02/08 07:48:31;;;;;;;3.92;3.72;;;;;;;;;;5067849;28;20081;-91
2023/02/08 07:50:58;;;;;;;3.38;3.22;;;;;;;;;;5061361;28;20123;-91
2023/02/08 07:53:24;;;;;;;2.97;2.85;;;;;;;;;;5055656;28;20048;-92
2023/02/08 07:55:52;;;;;;;3.88;3.65;;;;;;;;;;5055689;28;20041;-92
2023/02/08 07:58:19;;;;;;;4.05;3.85;;;;;;;;;;5056501;28;20048;-92
2023/02/08 08:00:45;;;;;;;4.55;4.35;;;;;;;;;;5057024;28;20448;-92
2023/02/08 08:03:12;;;;;;;4.35;4.13;;;;;;;;;;5056721;28;20041;-92
2023/02/08 08:05:39;;;;;;;5.15;4.85;;;;;;;;;;5055974;28;20049;-92
2023/02/08 08:08:07;;;;;;;5.13;4.90;;;;;;;;;;5062067;28;20102;-92
2023/02/08 08:10:36;;;;;;;6.90;6.38;;;;;;;;;;5049546;28;20115;-92
2023/02/08 08:13:04;;;;;;;2.25;2.15;;;;;;;;;;5039458;28;20054;-92
2023/02/08 08:15:30;;;;;;;2.25;2.15;;;;;;;;;;5034631;28;20060;-92
2023/02/08 08:17:57;;;;;;;6.00;5.43;;;;;;;;;;5034763;28;20045;-92
2023/02/08 08:20:23;;;;;;;5.68;4.80;;;;;;;;;;5033961;28;20508;-91
2023/02/08 08:22:50;;;;;;;4.30;4.00;;;;;;;;;;5036061;28;20099;-92
2023/02/08 08:25:17;;;;;;;4.38;4.07;;;;;;;;;;5054184;28;20049;-92
2023/02/08 08:27:43;;;;;;;3.53;3.33;;;;;;;;;;5052597;28;20140;-91
2023/02/08 08:30:13;;;;;;;3.70;3.50;;;;;;;;;;5054425;28;20055;-92
2023/02/08 08:32:40;;;;;;;4.78;4.57;;;;;;;;;;5054759;28;20048;-92
2023/02/08 08:35:06;;;;;;;4.10;3.90;;;;;;;;;;5053590;28;20451;-92
2023/02/08 08:37:33;;;;;;;3.45;3.15;;;;;;;;;;5053878;28;20053;-92
2023/02/08 08:40:00;;;;;;;3.00;2.80;;;;;;;;;;5053991;28;20152;-91
2023/02/08 08:42:26;;;;;;;8.23;7.43;;;;;;;;;;5054083;28;20443;-92
2023/02/08 08:44:53;;;;;;;3.20;2.63;;;;;;;;;;5053405;28;20045;-92
2023/02/08 08:47:21;;;;;;;7.97;7.57;;;;;;;;;;5051404;28;20144;-92
2023/02/08 08:49:48;;;;;;;2.85;2.55;;;;;;;;;;5072893;28;20036;-91
2023/02/08 08:52:14;;;;;;;2.13;2.03;;;;;;;;;;5071354;28;20052;-92
2023/02/08 08:54:41;;;;;;;4.07;3.78;;;;;;;;;;5070550;28;20049;-89
2023/02/08 08:57:08;;;;;;;7.13;5.75;;;;;;;;;;5056974;28;20049;-92
2023/02/08 08:59:34;;;;;;;3.40;3.28;;;;;;;;;;5054205;28;20474;-93
2023/02/08 09:02:01;;;;;;;4.32;4.10;;;;;;;;;;5040705;28;20053;-91
2023/02/08 09:04:29;;;;;;;3.55;3.35;;;;;;;;;;5043081;28;20052;-92
2023/02/08 09:06:55;;;;;;;1.80;1.70;;;;;;;;;;5051608;28;20053;-91
2023/02/08 09:09:22;;;;;;;3.60;3.10;;;;;;;;;;5038811;28;20050;-92
2023/02/08 09:11:49;;;;;;;1.60;1.50;;;;;;;;;;5047142;28;20049;-91
2023/02/08 09:14:16;;;;;;;3.65;3.22;;;;;;;;;;5050729;28;20107;-91
2023/02/08 09:16:46;;;;;;;3.58;3.28;;;;;;;;;;5049339;28;20530;-92
2023/02/08 09:19:13;;;;;;;3.25;3.15;;;;;;;;;;5044150;28;20527;-91
2023/02/08 09:21:41;;;;;;;2.63;2.42;;;;;;;;;;5044442;28;20049;-92
2023/02/08 09:24:08;;;;;;;5.53;5.13;;;;;;;;;;5053110;28;20140;-92
2023/02/08 09:26:35;;;;;;;4.35;3.97;;;;;;;;;;5051509;28;20154;-92
2023/02/08 09:29:01;;;;;;;1.27;1.13;;;;;;;;;;5042404;28;20413;-90
2023/02/08 09:31:29;;;;;;;1.38;1.25;;;;;;;;;;5043415;28;20434;-91
2023/02/08 09:33:56;;;;;;;3.92;3.72;;;;;;;;;;5044988;28;20053;-91
2023/02/08 09:36:23;;;;;;;3.45;3.25;;;;;;;;;;5044855;28;20041;-92
2023/02/08 09:38:56;;;;;;;1.98;1.83;;;;;;;;;;5040121;28;20049;-91
2023/02/08 09:41:27;;;;;;;3.10;2.90;;;;;;;;;;5051566;28;20508;-92
2023/02/08 09:43:56;;;;;;;3.42;3.15;;;;;;;;;;5044055;28;20045;-92
2023/02/08 09:46:24;;;;;;;3.00;2.80;;;;;;;;;;5043026;28;20045;-93
2023/02/08 09:48:52;;;;;;;2.00;1.90;;;;;;;;;;5044276;28;20120;-92
2023/02/08 09:51:22;;;;;;;3.58;3.38;;;;;;;;;;5046893;28;20053;-91
2023/02/08 09:53:55;;;;;;;4.43;4.13;;;;;;;;;;5044906;28;20049;-92
2023/02/08 09:56:26;;;;;;;5.85;5.22;;;;;;;;;;5051517;28;20049;-92
2023/02/08 09:58:53;;;;;;;3.30;3.05;;;;;;;;;;5048529;28;20049;-91
2023/02/08 10:01:22;;;;;;;3.50;3.22;;;;;;;;;;5041035;28;20041;-91
2023/02/08 10:03:51;;;;;;;3.30;3.10;;;;;;;;;;5047546;28;20075;-92
2023/02/08 10:06:19;;;;;;;3.20;3.00;;;;;;;;;;5042995;28;20493;-92
2023/02/08 10:08:47;;;;;;;2.33;2.22;;;;;;;;;;5044851;28;20083;-90
2023/02/08 10:11:29;;;;;;;5.70;5.28;;;;;;;;;;5051695;28;20068;-90
2023/02/08 10:14:05;;;;;;;3.00;2.80;;;;;;;;;;5053523;28;20049;-90
2023/02/08 10:16:41;;;;;;;3.00;2.83;;;;;;;;;;5058004;28;20049;-91
2023/02/08 10:19:12;;;;;;;3.10;2.92;;;;;;;;;;5055773;28;20049;-90
2023/02/08 10:21:46;;;;;;;2.17;2.08;;;;;;;;;;5056415;28;20474;-90
2023/02/08 10:24:22;;;;;;;2.35;2.25;;;;;;;;;;5054727;28;20052;-91
2023/02/08 10:26:56;;;;;;;3.78;3.50;;;;;;;;;;5054804;28;20555;-90
2023/02/08 10:29:29;;;;;;;4.13;3.92;;;;;;;;;;5056618;28;20048;-90
2023/02/08 10:32:15;;;;;;;3.83;2.72;;;;;;;;;;5055536;28;20499;-90
2023/02/08 10:34:44;;;;;;;2.30;2.20;;;;;;;;;;5056595;28;20052;-91
2023/02/08 10:37:14;;;;;;;3.20;3.08;;;;;;;;;;5056277;28;20060;-92
2023/02/08 10:39:40;;;;;;;7.10;3.33;;;;;;;;;;5055870;28;20107;-91
2023/02/08 10:42:13;;;;;;;4.00;3.72;;;;;;;;;;5055401;28;20112;-91
2023/02/08 10:44:46;;;;;;;2.60;2.50;;;;;;;;;;5055995;28;20045;-91
2023/02/08 10:47:14;;;;;;;2.60;2.45;;;;;;;;;;5048942;28;20111;-91
2023/02/08 10:49:44;;;;;;;2.20;2.03;;;;;;;;;;5036103;28;20489;-93
2023/02/08 10:52:11;;;;;;;2.83;2.72;;;;;;;;;;5048331;28;20049;-93
2023/02/08 10:54:38;;;;;;;4.80;3.53;;;;;;;;;;5056265;28;20049;-93
2023/02/08 10:57:11;;;;;;;5.47;5.07;;;;;;;;;;5056010;28;20048;-93
2023/02/08 10:59:48;;;;;;;3.10;2.90;;;;;;;;;;5055271;28;20445;-94
2023/02/08 11:02:20;;;;;;;4.35;4.15;;;;;;;;;;5056273;28;20055;-94
2023/02/08 11:04:57;;;;;;;3.45;3.25;;;;;;;;;;5055871;28;20114;-93
2023/02/08 11:07:23;;;;;;;3.08;2.97;;;;;;;;;;5056726;28;20048;-92
2023/02/08 11:09:50;;;;;;;3.70;3.50;;;;;;;;;;5053232;28;20498;-90
2023/02/08 11:12:18;;;;;;;3.78;3.28;;;;;;;;;;5054361;28;20045;-91
2023/02/08 11:14:50;;;;;;;2.60;2.47;;;;;;;;;;5044087;28;20056;-92
2023/02/08 11:17:24;;;;;;;2.50;2.40;;;;;;;;;;5041421;28;20558;-92
2023/02/08 11:19:51;;;;;;;4.22;4.03;;;;;;;;;;5055062;28;20064;-91
2023/02/08 11:22:19;;;;;;;1.85;1.75;;;;;;;;;;5055336;28;20053;-93
2023/02/08 11:24:49;;;;;;;3.42;3.25;;;;;;;;;;5055624;28;20049;-93
2023/02/08 11:27:17;;;;;;;4.20;4.00;;;;;;;;;;5056962;28;20056;-90
2023/02/08 11:29:43;;;;;;;3.63;3.42;;;;;;;;;;5057097;28;20069;-93
2023/02/08 11:32:16;;;;;;;5.10;4.82;;;;;;;;;;5054269;28;20041;-92
2023/02/08 11:34:42;;;;;;;2.40;2.30;;;;;;;;;;5039572;28;20046;-91
2023/02/08 11:37:14;;;;;;;3.00;2.90;;;;;;;;;;5046635;28;20052;-92
2023/02/08 11:39:42;;;;;;;2.75;2.65;;;;;;;;;;5055303;28;20049;-92
2023/02/08 11:42:18;;;;;;;1.83;1.73;;;;;;;;;;5056270;28;20049;-92
2023/02/08 11:44:44;;;;;;;10.10;8.13;;;;;;;;;;5058372;28;20098;-92
2023/02/08 11:47:14;;;;;;;4.35;3.92;;;;;;;;;;5056417;28;20456;-91
2023/02/08 11:49:43;;;;;;;2.88;2.78;;;;;;;;;;5055309;28;20115;-93
2023/02/08 11:52:19;;;;;;;2.28;2.13;;;;;;;;;;5055478;28;20409;-92
2023/02/08 11:54:46;;;;;;;5.97;4.03;;;;;;;;;;5055969;28;20045;-92
2023/02/08 11:57:14;;;;;;;4.25;3.55;;;;;;;;;;5054838;28;20056;-93
2023/02/08 11:59:41;;;;;;;3.15;2.30;;;;;;;;;;5049937;28;20045;-92
2023/02/08 12:02:28;;;;;;;2.00;1.90;;;;;;;;;;5052382;28;20404;-93
2023/02/08 12:04:56;;;;;;;3.33;3.17;;;;;;;;;;5053866;28;20110;-92
2023/02/08 12:07:25;;;;;;;4.20;3.90;;;;;;;;;;5054936;28;20052;-90
2023/02/08 12:10:11;;;;;;;4.60;4.32;;;;;;;;;;5054821;28;20094;-92
2023/02/08 12:12:44;;;;;;;5.43;5.13;;;;;;;;;;5054657;28;20045;-92
2023/02/08 12:15:14;;;;;;;2.70;2.55;;;;;;;;;;5052966;28;20055;-92
2023/02/08 12:17:54;;;;;;;3.88;3.72;;;;;;;;;;5043025;28;20048;-92
2023/02/08 12:20:42;;;;;;;2.92;2.83;;;;;;;;;;5053781;28;20049;-91
2023/02/08 12:23:31;;;;;;;1.80;1.42;;;;;;;;;;5038279;28;20519;-92
2023/02/08 12:26:04;;;;;;;1.42;1.38;;;;;;;;;;5054102;28;20390;-93
2023/02/08 12:28:36;;;;;;;3.40;3.10;;;;;;;;;;5037420;28;20437;-91
2023/02/08 12:31:07;;;;;;;3.85;3.65;;;;;;;;;;5034048;28;20053;-92
2023/02/08 12:33:43;;;;;;;5.53;4.03;;;;;;;;;;5034689;28;20456;-91
2023/02/08 12:36:28;;;;;;;4.60;4.40;;;;;;;;;;5035482;28;20053;-91
2023/02/08 12:41:52;;;;;;;9.57;4.28;;;;;;;;;;5055602;28;20107;-91
2023/02/08 12:44:24;;;;;;;2.67;2.58;;;;;;;;;;5047687;28;20064;-91
2023/02/08 12:46:53;;;;;;;4.85;4.55;;;;;;;;;;5058447;28;20072;-90
2023/02/08 12:49:32;;;;;;;2.38;1.75;;;;;;;;;;5050495;28;20409;-89
2023/02/08 12:52:02;;;;;;;3.97;3.78;;;;;;;;;;5057845;28;20052;-93
2023/02/08 12:54:33;;;;;;;3.00;2.90;;;;;;;;;;5057878;28;20045;-90
2023/02/08 12:57:01;;;;;;;5.13;4.70;;;;;;;;;;5058190;28;20053;-90
2023/02/08 12:59:30;;;;;;;2.08;1.90;;;;;;;;;;5058358;28;20405;-92
2023/02/08 13:02:00;;;;;;;4.43;4.20;;;;;;;;;;5058638;28;20044;-90
2023/02/08 13:04:29;;;;;;;7.50;7.20;;;;;;;;;;5058505;28;20065;-91
2023/02/08 13:06:58;;;;;;;2.30;2.20;;;;;;;;;;5058261;28;20045;-91
2023/02/08 13:09:35;;;;;;;2.83;2.72;;;;;;;;;;5059645;28;20053;-92
2023/02/08 13:12:06;;;;;;;3.20;2.90;;;;;;;;;;5062638;28;20539;-91
2023/02/08 13:14:34;;;;;;;4.88;4.47;;;;;;;;;;5043260;28;20049;-91
2023/02/08 13:17:05;;;;;;;2.72;2.63;;;;;;;;;;5043780;28;20041;-92
2023/02/08 13:19:32;;;;;;;3.28;3.05;;;;;;;;;;5064385;28;20057;-93
2023/02/08 13:21:59;;;;;;;2.78;2.63;;;;;;;;;;5061060;28;20049;-91
2023/02/08 13:24:29;;;;;;;3.70;3.50;;;;;;;;;;5050616;28;20048;-91
2023/02/08 13:26:55;;;;;;;3.72;3.42;;;;;;;;;;5044919;28;20042;-92
2023/02/08 13:29:24;;;;;;;2.17;2.08;;;;;;;;;;5047470;28;20057;-92
2023/02/08 13:31:53;;;;;;;2.70;2.60;;;;;;;;;;5048937;28;20049;-91
2023/02/08 13:34:24;;;;;;;3.25;3.05;;;;;;;;;;5061029;28;20061;-91
2023/02/08 13:36:54;;;;;;;3.20;3.03;;;;;;;;;;5052730;28;20053;-92
2023/02/08 13:39:29;;;;;;;3.30;3.17;;;;;;;;;;5058327;28;20098;-90
2023/02/08 13:41:56;;;;;;;3.10;2.90;;;;;;;;;;5040310;28;20060;-92
2023/02/08 13:44:27;;;;;;;2.67;2.58;;;;;;;;;;5058351;28;20401;-93
2023/02/08 13:46:53;;;;;;;3.50;3.30;;;;;;;;;;5041519;28;20103;-90
2023/02/08 13:49:41;;;;;;;4.38;4.03;;;;;;;;;;5050149;28;20048;-89
2023/02/08 13:52:08;;;;;;;3.08;2.88;;;;;;;;;;5055954;28;20107;-90
2023/02/08 13:54:35;;;;;;;2.22;2.13;;;;;;;;;;5050715;28;20053;-89
2023/02/08 13:57:02;;;;;;;1.98;1.88;;;;;;;;;;5052955;28;20450;-90
2023/02/08 13:59:34;;;;;;;3.70;3.35;;;;;;;;;;5051853;28;20102;-90
2023/02/08 14:02:27;;;;;;;2.35;2.25;;;;;;;;;;5047853;28;20135;-90
2023/02/08 14:05:09;;;;;;;3.65;3.45;;;;;;;;;;4982056;28;20066;-90
2023/02/08 14:07:40;;;;;;;3.80;3.60;;;;;;;;;;4962876;28;20046;-90
2023/02/08 14:10:18;;;;;;;3.58;3.42;;;;;;;;;;4985291;28;20058;-90
2023/02/08 14:12:44;;;;;;;;;;;;;;;;;;4983997;28;20873;-89
2023/02/08 14:15:26;;;;;;;3.45;3.25;;;;;;;;;;4985156;28;19921;-89
2023/02/08 14:20:38;;;;;;;5.45;5.07;;;;;;;;;;4987152;28;20134;-89
2023/02/08 14:23:06;;;;;;;3.95;3.65;;;;;;;;;;4977410;28;20126;-88
2023/02/08 14:25:41;;;;;;;3.58;3.28;;;;;;;;;;4987021;28;20127;-89
2023/02/08 14:28:20;;;;;;;3.42;3.22;;;;;;;;;;4980367;28;20061;-89
2023/02/08 14:30:50;;;;;;;4.90;4.60;;;;;;;;;;4989013;28;20533;-89
2023/02/08 14:33:19;;;;;;;3.97;3.78;;;;;;;;;;4981302;28;20042;-89
2023/02/08 14:35:54;;;;;;;2.92;2.83;;;;;;;;;;4979774;28;20458;-90
2023/02/08 14:38:32;;;;;;;1.98;1.88;;;;;;;;;;5090392;22;20168;-89
2023/02/08 14:40:59;;;;;;;6.45;6.05;;;;;;;;;;5099931;23;20061;-91
2023/02/08 14:43:33;;;;;;;2.88;2.67;;;;;;;;;;5016266;28;20054;-91
2023/02/08 14:46:15;;;;;;;3.28;3.10;;;;;;;;;;5016124;28;20057;-91
2023/02/08 14:48:49;;;;;;;2.30;2.20;;;;;;;;;;5021505;28;20050;-92
2023/02/08 14:51:18;;;;;;;6.78;3.95;;;;;;;;;;5024686;28;20140;-90
2023/02/08 14:53:47;;;;;;;4.43;3.75;;;;;;;;;;5002076;28;20046;-91
2023/02/08 14:56:16;;;;;;;3.33;3.03;;;;;;;;;;5016947;28;20624;-93
2023/02/08 14:58:44;;;;;;;2.88;2.78;;;;;;;;;;5016386;28;20059;-93
2023/02/08 15:01:14;;;;;;;4.18;3.97;;;;;;;;;;5016649;28;20108;-92
2023/02/08 15:03:41;;;;;;;2.92;2.72;;;;;;;;;;5016781;28;20054;-92